createdAt,value
2019-02-04T00:00:43.079Z,-0.3
2019-02-04T00:01:44.474Z,-0.3
2019-02-04T00:02:46.004Z,-0.3
2019-02-04T00:03:47.403Z,-0.3
2019-02-04T00:04:49.548Z,-0.3
2019-02-04T00:05:50.941Z,-0.3
2019-02-04T00:06:52.344Z,-0.3
2019-02-04T00:07:53.734Z,-0.3
2019-02-04T00:08:55.263Z,-0.3
2019-02-04T00:09:56.663Z,-0.4
2019-02-04T00:10:59.377Z,-0.3
2019-02-04T00:11:59.582Z,-0.4
2019-02-04T00:13:00.974Z,-0.3
2019-02-04T00:14:02.465Z,-0.3
2019-02-04T00:15:03.862Z,-0.3
2019-02-04T00:16:05.346Z,-0.3
2019-02-04T00:17:06.743Z,-0.4
2019-02-04T00:18:08.226Z,-0.4
2019-02-04T00:19:09.620Z,-0.3
2019-02-04T00:20:11.106Z,-0.4
2019-02-04T00:21:12.496Z,-0.3
2019-02-04T00:22:13.897Z,-0.4
2019-02-04T00:23:15.427Z,-0.4
2019-02-04T00:24:16.817Z,-0.3
2019-02-04T00:25:18.212Z,-0.4
2019-02-04T00:26:19.755Z,-0.3
2019-02-04T00:27:21.150Z,-0.4
2019-02-04T00:28:22.548Z,-0.3
2019-02-04T00:29:24.075Z,-0.3
2019-02-04T00:30:25.474Z,-0.3
2019-02-04T00:31:26.952Z,-0.3
2019-02-04T00:32:28.344Z,-0.3
2019-02-04T00:33:29.741Z,-0.4
2019-02-04T00:34:31.273Z,-0.4
2019-02-04T00:35:32.672Z,-0.4
2019-02-04T00:36:34.066Z,-0.3
2019-02-04T00:37:35.625Z,-0.4
2019-02-04T00:38:37.044Z,-0.4
2019-02-04T00:39:38.441Z,-0.3
2019-02-04T00:40:39.916Z,-0.4
2019-02-04T00:41:41.309Z,-0.4
2019-02-04T00:42:42.707Z,-0.3
2019-02-04T00:43:44.236Z,-0.4
2019-02-04T00:44:45.597Z,-0.4
2019-02-04T00:45:46.991Z,-0.3
2019-02-04T00:46:52.286Z,-0.5
2019-02-04T00:47:49.987Z,-0.4
2019-02-04T00:48:51.383Z,-0.5
2019-02-04T00:49:52.879Z,-0.5
2019-02-04T00:50:54.270Z,-0.4
2019-02-04T00:51:56.787Z,-0.5
2019-02-04T00:52:58.203Z,-0.5
2019-02-04T00:53:59.560Z,-0.3
2019-02-04T00:55:01.105Z,-0.5
2019-02-04T00:56:02.547Z,-0.4
2019-02-04T00:57:03.938Z,-0.4
2019-02-04T00:58:05.426Z,-0.4
2019-02-04T00:59:06.822Z,-0.4
2019-02-04T01:00:08.306Z,-0.4
2019-02-04T01:01:09.701Z,-0.5
2019-02-04T01:02:11.188Z,-0.5
2019-02-04T01:03:12.583Z,-0.4
2019-02-04T01:04:14.069Z,-0.4
2019-02-04T01:05:15.462Z,-0.4
2019-02-04T01:06:16.949Z,-0.3
2019-02-04T01:07:18.373Z,-0.4
2019-02-04T01:08:20.193Z,-0.4
2019-02-04T01:09:21.586Z,-0.4
2019-02-04T01:10:23.126Z,-0.4
2019-02-04T01:11:24.557Z,-0.5
2019-02-04T01:12:26.211Z,-0.4
2019-02-04T01:13:27.572Z,-0.3
2019-02-04T01:14:29.187Z,-0.4
2019-02-04T01:15:30.583Z,-0.3
2019-02-04T01:16:32.174Z,-0.4
2019-02-04T01:17:33.570Z,-0.4
2019-02-04T01:18:34.966Z,-0.4
2019-02-04T01:19:36.496Z,-0.5
2019-02-04T01:20:37.940Z,-0.4
2019-02-04T01:21:39.333Z,-0.5
2019-02-04T01:22:40.819Z,-0.5
2019-02-04T01:23:42.174Z,-0.4
2019-02-04T01:24:43.697Z,-0.4
2019-02-04T01:25:45.092Z,-0.4
2019-02-04T01:26:46.591Z,-0.4
2019-02-04T01:27:47.988Z,-0.3
2019-02-04T01:28:49.384Z,-0.3
2019-02-04T01:29:50.915Z,-0.4
2019-02-04T01:30:52.307Z,-0.3
2019-02-04T01:31:53.699Z,-0.4
2019-02-04T01:32:55.221Z,-0.3
2019-02-04T01:33:56.611Z,-0.4
2019-02-04T01:34:58.130Z,-0.3
2019-02-04T01:35:59.531Z,-0.3
2019-02-04T01:37:01.188Z,-0.3
2019-02-04T01:38:02.588Z,-0.3
2019-02-04T01:39:04.105Z,-0.4
2019-02-04T01:40:05.502Z,-0.4
2019-02-04T01:41:07.159Z,-0.3
2019-02-04T01:42:08.556Z,-0.3
2019-02-04T01:43:10.036Z,-0.4
2019-02-04T01:44:11.431Z,-0.4
2019-02-04T01:45:12.916Z,-0.4
2019-02-04T01:46:14.307Z,-0.4
2019-02-04T01:47:15.797Z,-0.4
2019-02-04T01:48:17.192Z,-0.4
2019-02-04T01:49:18.642Z,-0.4
2019-02-04T01:50:20.045Z,-0.4
2019-02-04T01:51:21.443Z,-0.5
2019-02-04T01:52:22.999Z,-0.4
2019-02-04T01:53:24.415Z,-0.4
2019-02-04T01:54:25.807Z,-0.4
2019-02-04T01:55:27.320Z,-0.4
2019-02-04T01:56:28.720Z,-0.4
2019-02-04T01:57:30.116Z,-0.5
2019-02-04T01:58:31.670Z,-0.5
2019-02-04T01:59:33.067Z,-0.5
2019-02-04T02:00:34.729Z,-0.4
2019-02-04T02:01:36.250Z,-0.4
2019-02-04T02:02:37.610Z,-0.4
2019-02-04T02:03:39.006Z,-0.4
2019-02-04T02:04:40.398Z,-0.5
2019-02-04T02:05:41.945Z,-0.4
2019-02-04T02:06:43.342Z,-0.5
2019-02-04T02:07:44.736Z,-0.5
2019-02-04T02:08:46.251Z,-0.5
2019-02-04T02:09:47.649Z,-0.5
2019-02-04T02:10:49.144Z,-0.5
2019-02-04T02:11:50.503Z,-0.5
2019-02-04T02:12:52.021Z,-0.5
2019-02-04T02:13:53.413Z,-0.4
2019-02-04T02:14:54.826Z,-0.5
2019-02-04T02:15:56.450Z,-0.5
2019-02-04T02:16:57.893Z,-0.5
2019-02-04T02:17:59.302Z,-0.5
2019-02-04T02:19:01.249Z,-0.5
2019-02-04T02:20:03.151Z,-0.5
2019-02-04T02:21:04.581Z,-0.4
2019-02-04T02:22:06.291Z,-0.5
2019-02-04T02:23:07.855Z,-0.4
2019-02-04T02:24:09.340Z,-0.5
2019-02-04T02:25:11.080Z,-0.5
2019-02-04T02:26:12.563Z,-0.4
2019-02-04T02:27:14.267Z,-0.4
2019-02-04T02:28:15.680Z,-0.5
2019-02-04T02:29:17.386Z,-0.5
2019-02-04T02:30:18.885Z,-0.5
2019-02-04T02:31:20.502Z,-0.6
2019-02-04T02:32:21.967Z,-0.5
2019-02-04T02:33:23.588Z,-0.5
2019-02-04T02:34:25.078Z,-0.5
2019-02-04T02:35:26.647Z,-0.5
2019-02-04T02:36:28.727Z,-0.6
2019-02-04T02:37:30.382Z,-0.5
2019-02-04T02:38:31.871Z,-0.5
2019-02-04T02:39:33.310Z,-0.5
2019-02-04T02:40:34.885Z,-0.5
2019-02-04T02:41:36.313Z,-0.5
2019-02-04T02:42:37.850Z,-0.6
2019-02-04T02:43:40.425Z,-0.5
2019-02-04T02:44:41.903Z,-0.4
2019-02-04T02:45:43.520Z,-0.6
2019-02-04T02:46:45.039Z,-0.4
2019-02-04T02:47:46.609Z,-0.5
2019-02-04T02:48:48.108Z,-0.5
2019-02-04T02:49:49.696Z,-0.5
2019-02-04T02:50:51.177Z,-0.5
2019-02-04T02:51:52.789Z,-0.6
2019-02-04T02:52:54.280Z,-0.6
2019-02-04T02:53:57.029Z,-0.6
2019-02-04T02:54:58.489Z,-0.5
2019-02-04T02:56:00.703Z,-0.5
2019-02-04T02:57:02.206Z,-0.5
2019-02-04T02:58:03.677Z,-0.6
2019-02-04T02:59:05.167Z,-0.6
2019-02-04T03:00:07.571Z,-0.5
2019-02-04T03:01:09.070Z,-0.5
2019-02-04T03:02:10.720Z,-0.6
2019-02-04T03:03:12.176Z,-0.5
2019-02-04T03:04:14.188Z,-0.5
2019-02-04T03:05:16.093Z,-0.5
2019-02-04T03:06:17.673Z,-0.5
2019-02-04T03:07:19.138Z,-0.5
2019-02-04T03:08:20.705Z,-0.5
2019-02-04T03:09:22.299Z,-0.5
2019-02-04T03:10:23.677Z,-0.5
2019-02-04T03:11:25.246Z,-0.5
2019-02-04T03:12:26.708Z,-0.5
2019-02-04T03:13:28.186Z,-0.5
2019-02-04T03:14:29.770Z,-0.5
2019-02-04T03:15:31.246Z,-0.5
2019-02-04T03:16:32.849Z,-0.5
2019-02-04T03:17:34.287Z,-0.5
2019-02-04T03:18:35.995Z,-0.6
2019-02-04T03:19:37.480Z,-0.6
2019-02-04T03:20:39.610Z,-0.6
2019-02-04T03:21:41.034Z,-0.5
2019-02-04T03:22:42.743Z,-0.6
2019-02-04T03:23:44.180Z,-0.6
2019-02-04T03:24:45.833Z,-0.6
2019-02-04T03:25:47.344Z,-0.6
2019-02-04T03:26:48.955Z,-0.6
2019-02-04T03:27:50.393Z,-0.6
2019-02-04T03:28:51.988Z,-0.6
2019-02-04T03:29:53.438Z,-0.6
2019-02-04T03:30:55.058Z,-0.6
2019-02-04T03:31:56.473Z,-0.6
2019-02-04T03:32:58.625Z,-0.6
2019-02-04T03:33:59.954Z,-0.6
2019-02-04T03:35:02.351Z,-0.5
2019-02-04T03:36:03.961Z,-0.6
2019-02-04T03:37:05.557Z,-0.5
2019-02-04T03:38:07.002Z,-0.6
2019-02-04T03:39:08.669Z,-0.6
2019-02-04T03:40:10.129Z,-0.6
2019-02-04T03:41:12.425Z,-0.7
2019-02-04T03:42:14.003Z,-0.6
2019-02-04T03:43:15.458Z,-0.8
2019-02-04T03:44:16.969Z,-0.6
2019-02-04T03:45:18.546Z,-0.6
2019-02-04T03:46:20.039Z,-0.7
2019-02-04T03:47:21.613Z,-0.6
2019-02-04T03:48:23.382Z,-0.6
2019-02-04T03:49:24.883Z,-0.7
2019-02-04T03:50:26.914Z,-0.6
2019-02-04T03:51:28.242Z,-0.6
2019-02-04T03:52:29.825Z,-0.8
2019-02-04T03:53:31.299Z,-0.7
2019-02-04T03:54:32.806Z,-0.7
2019-02-04T03:55:34.348Z,-0.7
2019-02-04T03:56:35.788Z,-0.6
2019-02-04T03:57:37.687Z,-0.6
2019-02-04T03:58:39.295Z,-0.6
2019-02-04T03:59:40.764Z,-0.6
2019-02-04T04:00:42.231Z,-0.6
2019-02-04T04:01:43.806Z,-0.6
2019-02-04T04:02:45.272Z,-0.6
2019-02-04T04:03:46.907Z,-0.5
2019-02-04T04:04:48.397Z,-0.6
2019-02-04T04:05:50.027Z,-0.5
2019-02-04T04:06:51.602Z,-0.5
2019-02-04T04:07:53.540Z,-0.5
2019-02-04T04:08:54.759Z,-0.5
2019-02-04T04:09:56.475Z,-0.6
2019-02-04T04:10:57.916Z,-0.5
2019-02-04T04:11:59.454Z,-0.6
2019-02-04T04:13:00.913Z,-0.6
2019-02-04T04:14:02.546Z,-0.6
2019-02-04T04:15:04.004Z,-0.6
2019-02-04T04:16:06.444Z,-0.6
2019-02-04T04:17:07.879Z,-0.6
2019-02-04T04:18:16.080Z,-0.6
2019-02-04T04:19:10.919Z,-0.6
2019-02-04T04:20:12.933Z,-0.6
2019-02-04T04:21:14.428Z,-0.6
2019-02-04T04:22:16.148Z,-0.6
2019-02-04T04:23:17.614Z,-0.6
2019-02-04T04:24:19.605Z,-0.5
2019-02-04T04:25:21.366Z,-0.5
2019-02-04T04:26:22.810Z,-0.5
2019-02-04T04:27:24.563Z,-0.6
2019-02-04T04:28:26.038Z,-0.5
2019-02-04T04:29:27.525Z,-0.5
2019-02-04T04:30:29.438Z,-0.5
2019-02-04T04:31:30.919Z,-0.5
2019-02-04T04:32:32.968Z,-0.6
2019-02-04T04:33:34.787Z,-0.5
2019-02-04T04:34:36.452Z,-0.5
2019-02-04T04:35:37.894Z,-0.6
2019-02-04T04:36:39.389Z,-0.5
2019-02-04T04:37:42.045Z,-0.5
2019-02-04T04:38:43.550Z,-0.5
2019-02-04T04:39:45.015Z,-0.6
2019-02-04T04:40:46.568Z,-0.6
2019-02-04T04:41:48.021Z,-0.5
2019-02-04T04:42:49.513Z,-0.6
2019-02-04T04:43:51.072Z,-0.6
2019-02-04T04:44:52.556Z,-0.6
2019-02-04T04:45:54.015Z,-0.6
2019-02-04T04:46:55.633Z,-0.6
2019-02-04T04:47:57.143Z,-0.5
2019-02-04T04:48:58.592Z,-0.6
2019-02-04T04:50:00.191Z,-0.6
2019-02-04T04:51:01.662Z,-0.5
2019-02-04T04:52:03.042Z,-0.6
2019-02-04T04:53:04.680Z,-0.6
2019-02-04T04:54:06.136Z,-0.6
2019-02-04T04:55:07.810Z,-0.5
2019-02-04T04:56:09.329Z,-0.6
2019-02-04T04:57:11.083Z,-0.5
2019-02-04T04:58:12.554Z,-0.6
2019-02-04T04:59:14.120Z,-0.6
2019-02-04T05:00:15.617Z,-0.6
2019-02-04T05:01:17.072Z,-0.5
2019-02-04T05:02:18.688Z,-0.6
2019-02-04T05:03:20.194Z,-0.6
2019-02-04T05:04:21.715Z,-0.5
2019-02-04T05:05:23.421Z,-0.5
2019-02-04T05:06:25.218Z,-0.5
2019-02-04T05:07:26.849Z,-0.5
2019-02-04T05:08:28.686Z,-0.4
2019-02-04T05:09:30.349Z,-0.5
2019-02-04T05:10:31.877Z,-0.5
2019-02-04T05:11:33.438Z,-0.5
2019-02-04T05:12:34.890Z,-0.6
2019-02-04T05:13:36.489Z,-0.5
2019-02-04T05:14:37.931Z,-0.5
2019-02-04T05:15:39.651Z,-0.5
2019-02-04T05:16:41.146Z,-0.5
2019-02-04T05:17:42.750Z,-0.4
2019-02-04T05:18:44.205Z,-0.5
2019-02-04T05:19:45.764Z,-0.5
2019-02-04T05:20:47.233Z,-0.6
2019-02-04T05:21:48.884Z,-0.5
2019-02-04T05:22:50.391Z,-0.5
2019-02-04T05:23:51.997Z,-0.5
2019-02-04T05:24:53.462Z,-0.5
2019-02-04T05:25:55.168Z,-0.6
2019-02-04T05:26:56.515Z,-0.6
2019-02-04T05:27:58.003Z,-0.6
2019-02-04T05:28:59.570Z,-0.6
2019-02-04T05:30:01.062Z,-0.6
2019-02-04T05:31:02.554Z,-0.6
2019-02-04T05:32:04.087Z,-0.5
2019-02-04T05:33:05.588Z,-0.5
2019-02-04T05:34:07.201Z,-0.5
2019-02-04T05:35:08.672Z,-0.6
2019-02-04T05:36:10.283Z,-0.5
2019-02-04T05:37:11.758Z,-0.5
2019-02-04T05:38:13.609Z,-0.5
2019-02-04T05:39:15.060Z,-0.6
2019-02-04T05:40:16.679Z,-0.5
2019-02-04T05:41:18.106Z,-0.6
2019-02-04T05:42:19.513Z,-0.5
2019-02-04T05:43:21.204Z,-0.5
2019-02-04T05:44:22.696Z,-0.5
2019-02-04T05:45:24.200Z,-0.4
2019-02-04T05:46:25.943Z,-0.5
2019-02-04T05:47:27.393Z,-0.6
2019-02-04T05:48:28.990Z,-0.5
2019-02-04T05:49:30.641Z,-0.5
2019-02-04T05:50:32.425Z,-0.5
2019-02-04T05:51:33.890Z,-0.5
2019-02-04T05:52:35.333Z,-0.4
2019-02-04T05:53:37.033Z,-0.5
2019-02-04T05:54:38.648Z,-0.6
2019-02-04T05:55:40.175Z,-0.5
2019-02-04T05:56:41.796Z,-0.5
2019-02-04T05:57:43.289Z,-0.5
2019-02-04T05:58:44.775Z,-0.5
2019-02-04T05:59:46.495Z,-0.5
2019-02-04T06:00:47.899Z,-0.5
2019-02-04T06:01:49.360Z,-0.4
2019-02-04T06:02:51.039Z,-0.4
2019-02-04T06:03:52.544Z,-0.5
2019-02-04T06:04:54.034Z,-0.5
2019-02-04T06:05:55.721Z,-0.4
2019-02-04T06:06:57.219Z,-0.4
2019-02-04T06:07:58.838Z,-0.4
2019-02-04T06:09:00.523Z,-0.5
2019-02-04T06:10:01.980Z,-0.4
2019-02-04T06:11:03.540Z,-0.4
2019-02-04T06:12:06.148Z,-0.4
2019-02-04T06:13:07.844Z,-0.4
2019-02-04T06:14:09.315Z,-0.5
2019-02-04T06:15:10.986Z,-0.5
2019-02-04T06:16:12.492Z,-0.4
2019-02-04T06:17:14.065Z,-0.5
2019-02-04T06:18:15.514Z,-0.4
2019-02-04T06:19:17.128Z,-0.4
2019-02-04T06:20:18.558Z,-0.5
2019-02-04T06:21:20.213Z,-0.5
2019-02-04T06:22:21.731Z,-0.5
2019-02-04T06:23:23.339Z,-0.5
2019-02-04T06:24:24.858Z,-0.5
2019-02-04T06:25:26.615Z,-0.4
2019-02-04T06:26:28.096Z,-0.5
2019-02-04T06:27:29.573Z,-0.4
2019-02-04T06:28:31.128Z,-0.5
2019-02-04T06:29:32.567Z,-0.5
2019-02-04T06:30:34.453Z,-0.5
2019-02-04T06:31:36.006Z,-0.5
2019-02-04T06:32:37.506Z,-0.5
2019-02-04T06:33:39.132Z,-0.5
2019-02-04T06:34:40.644Z,-0.4
2019-02-04T06:35:42.188Z,-0.4
2019-02-04T06:36:44.035Z,-0.4
2019-02-04T06:37:46.888Z,-0.5
2019-02-04T06:38:47.174Z,-0.4
2019-02-04T06:39:48.818Z,-0.3
2019-02-04T06:40:50.277Z,-0.3
2019-02-04T06:41:51.920Z,-0.4
2019-02-04T06:42:53.425Z,-0.3
2019-02-04T06:43:55.010Z,-0.3
2019-02-04T06:44:56.522Z,-0.3
2019-02-04T06:45:58.072Z,-0.3
2019-02-04T06:46:59.563Z,-0.3
2019-02-04T06:48:01.174Z,-0.3
2019-02-04T06:49:11.946Z,-0.3
2019-02-04T06:50:04.835Z,-0.3
2019-02-04T06:51:06.303Z,-0.3
2019-02-04T06:52:07.938Z,-0.2
2019-02-04T06:53:09.464Z,-0.2
2019-02-04T06:54:11.006Z,-0.3
2019-02-04T06:55:12.445Z,-0.1
2019-02-04T06:56:14.491Z,-0.1
2019-02-04T06:57:15.981Z,-0.2
2019-02-04T06:58:17.628Z,-0.2
2019-02-04T06:59:19.025Z,-0.2
2019-02-04T07:00:20.677Z,-0.1
2019-02-04T07:01:22.168Z,-0.1
2019-02-04T07:02:23.671Z,-0.0
2019-02-04T07:03:25.214Z,-0.1
2019-02-04T07:04:26.702Z,-0.1
2019-02-04T07:05:28.220Z,-0.1
2019-02-04T07:06:29.973Z,-0.0
2019-02-04T07:07:31.465Z,0.0
2019-02-04T07:08:32.967Z,-0.0
2019-02-04T07:09:34.476Z,-0.0
2019-02-04T07:10:35.976Z,-0.0
2019-02-04T07:11:37.586Z,0.0
2019-02-04T07:12:39.515Z,0.2
2019-02-04T07:13:42.687Z,-0.0
2019-02-04T07:14:42.717Z,0.1
2019-02-04T07:15:44.624Z,0.1
2019-02-04T07:16:46.139Z,-0.1
2019-02-04T07:17:47.885Z,0.1
2019-02-04T07:18:49.339Z,-0.0
2019-02-04T07:19:50.846Z,0.1
2019-02-04T07:20:52.611Z,0.1
2019-02-04T07:21:54.476Z,0.1
2019-02-04T07:22:55.989Z,0.1
2019-02-04T07:23:57.722Z,0.2
2019-02-04T07:24:59.247Z,0.1
2019-02-04T07:26:00.755Z,0.2
2019-02-04T07:27:02.395Z,0.1
2019-02-04T07:28:04.115Z,0.2
2019-02-04T07:29:05.439Z,0.3
2019-02-04T07:30:07.131Z,0.4
2019-02-04T07:31:08.588Z,0.3
2019-02-04T07:32:10.043Z,0.5
2019-02-04T07:33:11.673Z,0.4
2019-02-04T07:34:13.212Z,0.4
2019-02-04T07:35:14.676Z,0.5
2019-02-04T07:36:16.274Z,0.5
2019-02-04T07:37:18.111Z,0.6
2019-02-04T07:38:19.600Z,0.6
2019-02-04T07:39:21.177Z,0.6
2019-02-04T07:40:22.658Z,0.7
2019-02-04T07:41:24.161Z,0.7
2019-02-04T07:42:25.946Z,0.7
2019-02-04T07:43:27.491Z,0.7
2019-02-04T07:44:29.272Z,0.7
2019-02-04T07:45:31.120Z,0.8
2019-02-04T07:46:32.723Z,0.8
2019-02-04T07:47:34.241Z,0.8
2019-02-04T07:48:35.768Z,0.9
2019-02-04T07:49:37.427Z,0.9
2019-02-04T07:50:38.910Z,0.8
2019-02-04T07:51:40.376Z,0.8
2019-02-04T07:52:41.960Z,1.0
2019-02-04T07:53:43.463Z,1.0
2019-02-04T07:54:44.955Z,1.0
2019-02-04T07:55:46.686Z,1.0
2019-02-04T07:56:48.220Z,1.0
2019-02-04T07:57:49.612Z,1.1
2019-02-04T07:58:51.147Z,1.1
2019-02-04T07:59:52.589Z,1.2
2019-02-04T08:00:54.008Z,1.2
2019-02-04T08:01:55.700Z,1.3
2019-02-04T08:02:57.158Z,1.2
2019-02-04T08:03:58.639Z,1.3
2019-02-04T08:05:00.238Z,1.3
2019-02-04T08:06:01.717Z,1.4
2019-02-04T08:07:03.215Z,1.4
2019-02-04T08:08:04.777Z,1.5
2019-02-04T08:09:06.197Z,1.5
2019-02-04T08:10:07.664Z,1.5
2019-02-04T08:11:09.290Z,1.5
2019-02-04T08:12:10.848Z,1.5
2019-02-04T08:13:12.235Z,1.5
2019-02-04T08:14:13.765Z,1.7
2019-02-04T08:15:15.257Z,1.6
2019-02-04T08:16:16.925Z,1.7
2019-02-04T08:17:18.317Z,1.6
2019-02-04T08:18:19.938Z,1.7
2019-02-04T08:19:21.353Z,1.8
2019-02-04T08:20:22.934Z,1.8
2019-02-04T08:21:24.249Z,1.8
2019-02-04T08:22:25.647Z,1.8
2019-02-04T08:23:27.072Z,1.8
2019-02-04T08:24:28.573Z,1.9
2019-02-04T08:25:29.986Z,1.9
2019-02-04T08:26:31.350Z,1.9
2019-02-04T08:27:32.896Z,1.9
2019-02-04T08:28:34.351Z,2.0
2019-02-04T08:29:35.952Z,2.0
2019-02-04T08:30:38.378Z,2.1
2019-02-04T08:31:39.175Z,2.0
2019-02-04T08:32:40.686Z,2.0
2019-02-04T08:33:42.080Z,2.1
2019-02-04T08:34:43.475Z,2.1
2019-02-04T08:35:45.092Z,2.1
2019-02-04T08:36:46.526Z,2.2
2019-02-04T08:37:47.753Z,2.1
2019-02-04T08:38:49.325Z,2.2
2019-02-04T08:39:50.725Z,2.3
2019-02-04T08:40:52.111Z,2.2
2019-02-04T08:41:53.658Z,2.3
2019-02-04T08:42:55.065Z,2.3
2019-02-04T08:43:56.460Z,2.4
2019-02-04T08:44:57.974Z,2.4
2019-02-04T08:45:59.378Z,2.4
2019-02-04T08:47:00.862Z,2.5
2019-02-04T08:48:02.297Z,2.6
2019-02-04T08:49:03.756Z,2.6
2019-02-04T08:50:05.156Z,2.7
2019-02-04T08:51:06.816Z,2.7
2019-02-04T08:52:08.245Z,2.7
2019-02-04T08:53:09.706Z,2.8
2019-02-04T08:54:11.072Z,2.9
2019-02-04T08:55:12.667Z,2.9
2019-02-04T08:56:14.069Z,2.9
2019-02-04T08:57:15.699Z,3.0
2019-02-04T08:58:17.104Z,3.0
2019-02-04T08:59:18.579Z,3.1
2019-02-04T09:00:19.990Z,3.1
2019-02-04T09:01:21.453Z,3.2
2019-02-04T09:02:22.912Z,3.2
2019-02-04T09:03:24.574Z,3.3
2019-02-04T09:04:26.028Z,3.3
2019-02-04T09:05:27.625Z,3.4
2019-02-04T09:06:29.037Z,3.4
2019-02-04T09:07:30.519Z,3.5
2019-02-04T09:08:31.932Z,3.6
2019-02-04T09:09:33.513Z,3.6
2019-02-04T09:10:35.036Z,3.6
2019-02-04T09:11:36.474Z,3.6
2019-02-04T09:12:37.896Z,3.8
2019-02-04T09:13:39.562Z,3.8
2019-02-04T09:14:40.976Z,4.0
2019-02-04T09:15:42.571Z,3.9
2019-02-04T09:16:43.996Z,3.9
2019-02-04T09:17:45.540Z,4.0
2019-02-04T09:18:46.998Z,4.0
2019-02-04T09:19:48.453Z,4.0
2019-02-04T09:20:50.216Z,4.0
2019-02-04T09:21:51.691Z,4.2
2019-02-04T09:22:53.883Z,4.2
2019-02-04T09:23:55.458Z,4.1
2019-02-04T09:24:56.920Z,4.2
2019-02-04T09:25:58.336Z,4.3
2019-02-04T09:26:59.931Z,4.3
2019-02-04T09:28:01.485Z,4.4
2019-02-04T09:29:02.885Z,4.4
2019-02-04T09:30:04.461Z,4.4
2019-02-04T09:31:05.874Z,4.5
2019-02-04T09:32:07.325Z,4.5
2019-02-04T09:33:08.792Z,4.5
2019-02-04T09:34:10.460Z,4.5
2019-02-04T09:35:11.890Z,4.6
2019-02-04T09:36:13.296Z,4.5
2019-02-04T09:37:14.975Z,4.6
2019-02-04T09:38:16.322Z,4.6
2019-02-04T09:39:17.721Z,4.6
2019-02-04T09:40:19.243Z,4.8
2019-02-04T09:41:20.650Z,4.8
2019-02-04T09:42:22.117Z,4.8
2019-02-04T09:43:23.919Z,4.8
2019-02-04T09:44:25.342Z,4.9
2019-02-04T09:45:27.848Z,4.8
2019-02-04T09:46:28.213Z,5.0
2019-02-04T09:47:29.621Z,5.0
2019-02-04T09:48:31.176Z,5.0
2019-02-04T09:49:32.575Z,5.0
2019-02-04T09:50:33.937Z,5.2
2019-02-04T09:51:35.502Z,5.1
2019-02-04T09:52:36.907Z,5.2
2019-02-04T09:53:38.374Z,5.2
2019-02-04T09:54:39.776Z,5.2
2019-02-04T09:55:41.462Z,5.2
2019-02-04T09:56:42.861Z,5.3
2019-02-04T09:57:44.342Z,5.2
2019-02-04T09:58:45.745Z,5.3
2019-02-04T09:59:47.126Z,5.3
2019-02-04T10:00:48.664Z,5.3
2019-02-04T10:01:50.068Z,5.3
2019-02-04T10:02:51.460Z,5.4
2019-02-04T10:03:54.009Z,5.4
2019-02-04T10:04:55.404Z,5.5
2019-02-04T10:05:56.804Z,5.3
2019-02-04T10:06:58.403Z,5.5
2019-02-04T10:07:59.786Z,5.4
2019-02-04T10:09:01.182Z,5.6
2019-02-04T10:10:02.655Z,5.6
2019-02-04T10:11:04.052Z,5.7
2019-02-04T10:12:05.456Z,5.7
2019-02-04T10:13:07.046Z,5.7
2019-02-04T10:14:08.450Z,5.7
2019-02-04T10:15:09.850Z,5.7
2019-02-04T10:16:11.671Z,5.7
2019-02-04T10:17:12.680Z,5.8
2019-02-04T10:18:14.060Z,5.8
2019-02-04T10:19:15.656Z,5.8
2019-02-04T10:20:17.037Z,5.9
2019-02-04T10:21:18.419Z,5.8
2019-02-04T10:22:19.968Z,5.8
2019-02-04T10:23:21.344Z,5.9
2019-02-04T10:24:22.964Z,5.9
2019-02-04T10:25:24.480Z,6.0
2019-02-04T10:26:25.870Z,6.0
2019-02-04T10:27:27.265Z,6.1
2019-02-04T10:28:28.785Z,6.0
2019-02-04T10:29:30.188Z,6.1
2019-02-04T10:30:31.596Z,6.1
2019-02-04T10:31:33.281Z,6.1
2019-02-04T10:32:34.631Z,6.1
2019-02-04T10:33:36.092Z,6.1
2019-02-04T10:34:37.661Z,6.2
2019-02-04T10:35:39.028Z,6.2
2019-02-04T10:36:40.399Z,6.2
2019-02-04T10:37:41.990Z,6.3
2019-02-04T10:38:43.347Z,6.3
2019-02-04T10:39:44.832Z,6.4
2019-02-04T10:40:46.319Z,6.4
2019-02-04T10:41:47.698Z,6.4
2019-02-04T10:42:49.136Z,6.4
2019-02-04T10:43:50.619Z,6.5
2019-02-04T10:44:52.086Z,6.5
2019-02-04T10:45:53.387Z,6.5
2019-02-04T10:46:54.931Z,6.5
2019-02-04T10:47:56.325Z,6.7
2019-02-04T10:48:57.698Z,6.6
2019-02-04T10:49:59.238Z,6.6
2019-02-04T10:51:00.663Z,6.5
2019-02-04T10:52:02.555Z,6.6
2019-02-04T10:53:03.933Z,6.5
2019-02-04T10:54:05.409Z,6.6
2019-02-04T10:55:06.911Z,6.7
2019-02-04T10:56:08.297Z,6.6
2019-02-04T10:57:09.772Z,6.6
2019-02-04T10:58:11.092Z,6.6
2019-02-04T10:59:12.490Z,6.7
2019-02-04T11:00:14.091Z,6.7
2019-02-04T11:01:15.482Z,6.6
2019-02-04T11:02:16.962Z,6.6
2019-02-04T11:03:19.954Z,6.7
2019-02-04T11:04:19.858Z,6.8
2019-02-04T11:05:21.217Z,6.8
2019-02-04T11:06:22.707Z,6.9
2019-02-04T11:07:24.134Z,6.8
2019-02-04T11:08:25.577Z,6.9
2019-02-04T11:09:27.008Z,6.9
2019-02-04T11:10:28.461Z,7.0
2019-02-04T11:11:29.877Z,6.9
2019-02-04T11:12:31.277Z,7.0
2019-02-04T11:13:32.809Z,7.1
2019-02-04T11:14:34.318Z,7.1
2019-02-04T11:15:35.699Z,7.0
2019-02-04T11:16:37.100Z,7.0
2019-02-04T11:17:38.472Z,7.0
2019-02-04T11:18:39.990Z,7.0
2019-02-04T11:19:41.437Z,7.0
2019-02-04T11:20:42.925Z,7.0
2019-02-04T11:21:44.319Z,7.0
2019-02-04T11:22:45.738Z,7.0
2019-02-04T11:23:47.193Z,7.1
2019-02-04T11:24:48.591Z,7.1
2019-02-04T11:25:49.992Z,7.2
2019-02-04T11:26:51.515Z,7.2
2019-02-04T11:27:52.925Z,7.2
2019-02-04T11:28:54.482Z,7.2
2019-02-04T11:29:55.854Z,7.1
2019-02-04T11:30:57.492Z,7.2
2019-02-04T11:31:58.899Z,7.2
2019-02-04T11:33:00.416Z,7.2
2019-02-04T11:34:01.758Z,7.2
2019-02-04T11:35:03.252Z,7.2
2019-02-04T11:36:04.674Z,7.2
2019-02-04T11:37:06.115Z,7.2
2019-02-04T11:38:07.552Z,7.2
2019-02-04T11:39:09.004Z,7.1
2019-02-04T11:40:10.449Z,7.1
2019-02-04T11:41:11.912Z,7.2
2019-02-04T11:42:13.286Z,7.1
2019-02-04T11:43:14.763Z,7.1
2019-02-04T11:44:16.160Z,7.2
2019-02-04T11:45:17.638Z,7.2
2019-02-04T11:46:19.488Z,7.2
2019-02-04T11:47:20.977Z,7.2
2019-02-04T11:48:22.377Z,7.2
2019-02-04T11:49:23.809Z,7.2
2019-02-04T11:50:25.211Z,7.3
2019-02-04T11:51:26.692Z,7.2
2019-02-04T11:52:28.090Z,7.3
2019-02-04T11:53:32.880Z,7.3
2019-02-04T11:54:30.935Z,7.3
2019-02-04T11:55:32.470Z,7.3
2019-02-04T11:56:33.888Z,7.3
2019-02-04T11:57:35.285Z,7.3
2019-02-04T11:58:36.842Z,7.3
2019-02-04T11:59:38.145Z,7.3
2019-02-04T12:00:39.572Z,7.2
2019-02-04T12:01:41.098Z,7.3
2019-02-04T12:02:42.494Z,7.3
2019-02-04T12:03:43.981Z,7.4
2019-02-04T12:04:45.376Z,7.3
2019-02-04T12:05:46.854Z,7.3
2019-02-04T12:06:48.264Z,7.4
2019-02-04T12:07:49.743Z,7.3
2019-02-04T12:08:51.142Z,7.3
2019-02-04T12:09:52.618Z,7.2
2019-02-04T12:10:54.016Z,7.3
2019-02-04T12:11:55.705Z,7.2
2019-02-04T12:12:56.863Z,7.3
2019-02-04T12:13:58.381Z,7.3
2019-02-04T12:14:59.743Z,7.3
2019-02-04T12:16:01.650Z,7.3
2019-02-04T12:17:03.012Z,7.3
2019-02-04T12:18:04.448Z,7.2
2019-02-04T12:19:05.991Z,7.2
2019-02-04T12:20:07.391Z,7.1
2019-02-04T12:21:08.792Z,7.3
2019-02-04T12:22:10.313Z,7.3
2019-02-04T12:23:11.747Z,7.3
2019-02-04T12:24:13.112Z,7.3
2019-02-04T12:25:14.631Z,7.3
2019-02-04T12:26:16.033Z,7.3
2019-02-04T12:27:17.494Z,7.2
2019-02-04T12:28:18.959Z,7.2
2019-02-04T12:29:20.361Z,7.2
2019-02-04T12:30:21.823Z,7.3
2019-02-04T12:31:23.379Z,7.2
2019-02-04T12:32:24.777Z,7.3
2019-02-04T12:33:26.368Z,7.3
2019-02-04T12:34:27.730Z,7.3
2019-02-04T12:35:29.669Z,7.3
2019-02-04T12:36:31.064Z,7.3
2019-02-04T12:37:32.603Z,7.3
2019-02-04T12:38:33.995Z,7.4
2019-02-04T12:39:35.389Z,7.4
2019-02-04T12:40:36.786Z,7.4
2019-02-04T12:41:38.297Z,7.3
2019-02-04T12:42:39.697Z,7.2
2019-02-04T12:43:41.063Z,7.3
2019-02-04T12:44:42.615Z,7.3
2019-02-04T12:45:44.018Z,7.3
2019-02-04T12:46:45.420Z,7.2
2019-02-04T12:47:46.937Z,7.2
2019-02-04T12:48:48.344Z,7.2
2019-02-04T12:49:49.741Z,7.2
2019-02-04T12:50:51.258Z,7.2
2019-02-04T12:51:52.664Z,7.2
2019-02-04T12:52:54.024Z,7.2
2019-02-04T12:53:55.595Z,7.3
2019-02-04T12:54:56.978Z,7.3
2019-02-04T12:55:58.379Z,7.3
2019-02-04T12:56:59.902Z,7.3
2019-02-04T12:58:01.316Z,7.4
2019-02-04T12:59:02.889Z,7.4
2019-02-04T13:00:04.285Z,7.5
2019-02-04T13:01:05.874Z,7.5
2019-02-04T13:02:07.841Z,7.6
2019-02-04T13:03:09.204Z,7.5
2019-02-04T13:04:10.806Z,7.6
2019-02-04T13:05:12.209Z,7.6
2019-02-04T13:06:13.614Z,7.7
2019-02-04T13:07:15.127Z,7.6
2019-02-04T13:08:16.525Z,7.7
2019-02-04T13:09:17.924Z,7.7
2019-02-04T13:10:19.447Z,7.7
2019-02-04T13:11:20.847Z,7.7
2019-02-04T13:12:22.211Z,7.7
2019-02-04T13:13:23.878Z,7.7
2019-02-04T13:14:25.273Z,7.7
2019-02-04T13:15:26.669Z,7.8
2019-02-04T13:16:28.193Z,7.7
2019-02-04T13:17:29.591Z,7.8
2019-02-04T13:18:30.992Z,7.7
2019-02-04T13:19:32.527Z,7.8
2019-02-04T13:20:33.913Z,7.7
2019-02-04T13:21:45.048Z,7.7
2019-02-04T13:22:36.760Z,7.8
2019-02-04T13:23:38.479Z,7.7
2019-02-04T13:24:39.885Z,7.8
2019-02-04T13:25:41.569Z,7.7
2019-02-04T13:26:42.964Z,7.7
2019-02-04T13:27:44.365Z,7.6
2019-02-04T13:28:45.889Z,7.6
2019-02-04T13:29:47.288Z,7.7
2019-02-04T13:30:48.686Z,7.5
2019-02-04T13:31:50.208Z,7.6
2019-02-04T13:32:51.608Z,7.6
2019-02-04T13:33:53.011Z,7.6
2019-02-04T13:34:54.733Z,7.5
2019-02-04T13:35:56.131Z,7.5
2019-02-04T13:36:57.819Z,7.5
2019-02-04T13:37:59.220Z,7.5
2019-02-04T13:39:00.622Z,7.3
2019-02-04T13:40:02.141Z,7.4
2019-02-04T13:41:08.116Z,7.4
2019-02-04T13:42:04.863Z,7.3
2019-02-04T13:43:06.463Z,7.3
2019-02-04T13:44:07.858Z,7.2
2019-02-04T13:45:09.548Z,7.2
2019-02-04T13:46:10.944Z,7.2
2019-02-04T13:47:12.634Z,7.3
2019-02-04T13:48:14.034Z,7.1
2019-02-04T13:49:15.718Z,7.1
2019-02-04T13:50:17.605Z,7.2
2019-02-04T13:51:19.215Z,7.2
2019-02-04T13:52:20.615Z,7.2